createdAt,value
2023-06-23T00:00:49.459Z,1008.5
2023-06-23T00:01:49.653Z,1008.5
2023-06-23T00:02:49.611Z,1008.5
2023-06-23T00:03:49.611Z,1008.5
2023-06-23T00:04:49.512Z,1008.5
2023-06-23T00:05:49.529Z,1008.6
2023-06-23T00:06:49.527Z,1008.6
2023-06-23T00:07:49.582Z,1008.6
2023-06-23T00:08:49.580Z,1008.5
2023-06-23T00:09:49.573Z,1008.6
2023-06-23T00:10:49.566Z,1008.5
2023-06-23T00:11:49.594Z,1008.6
2023-06-23T00:12:49.615Z,1008.6
2023-06-23T00:13:49.624Z,1008.6
2023-06-23T00:14:49.619Z,1008.6
2023-06-23T00:15:49.638Z,1008.6
2023-06-23T00:16:49.655Z,1008.6
2023-06-23T00:17:49.720Z,1008.6
2023-06-23T00:18:49.678Z,1008.5
2023-06-23T00:19:49.674Z,1008.6
2023-06-23T00:20:49.702Z,1008.5
2023-06-23T00:21:49.701Z,1008.5
2023-06-23T00:22:49.716Z,1008.5
2023-06-23T00:23:49.722Z,1008.4
2023-06-23T00:24:49.727Z,1008.4
2023-06-23T00:25:49.751Z,1008.3
2023-06-23T00:26:49.750Z,1008.3
2023-06-23T00:27:49.774Z,1008.3
2023-06-23T00:28:49.845Z,1008.4
2023-06-23T00:46:50.327Z,1008.6
2023-06-23T00:47:50.116Z,1008.7
2023-06-23T00:48:54.613Z,1008.7
2023-06-23T01:06:52.643Z,1008.8
2023-06-23T01:07:50.212Z,1008.7
2023-06-23T01:08:50.235Z,1008.7
2023-06-23T01:09:50.235Z,1008.7
2023-06-23T01:10:50.246Z,1008.8
2023-06-23T01:11:50.256Z,1008.8
2023-06-23T01:12:50.260Z,1008.8
2023-06-23T01:13:50.278Z,1008.8
2023-06-23T01:14:50.288Z,1008.8
2023-06-23T01:15:50.296Z,1008.9
2023-06-23T01:16:50.313Z,1008.9
2023-06-23T01:17:50.419Z,1008.9
2023-06-23T01:18:50.326Z,1008.9
2023-06-23T01:19:50.357Z,1008.9
2023-06-23T01:20:50.398Z,1008.9
2023-06-23T01:21:50.353Z,1008.9
2023-06-23T01:22:50.370Z,1008.9
2023-06-23T01:23:50.394Z,1008.9
2023-06-23T01:24:50.412Z,1008.9
2023-06-23T01:25:50.413Z,1009.0
2023-06-23T01:26:50.425Z,1008.9
2023-06-23T01:27:50.439Z,1008.9
2023-06-23T01:28:50.481Z,1008.9
2023-06-23T01:29:50.464Z,1008.9
2023-06-23T01:30:50.477Z,1009.0
2023-06-23T01:31:50.511Z,1008.9
2023-06-23T01:32:50.668Z,1008.9
2023-06-23T01:33:50.500Z,1008.9
2023-06-23T01:34:50.523Z,1008.9
2023-06-23T01:35:50.543Z,1008.9
2023-06-23T01:36:50.562Z,1008.8
2023-06-23T01:37:50.547Z,1008.9
2023-06-23T01:38:50.557Z,1008.8
2023-06-23T01:39:50.570Z,1008.9
2023-06-23T01:40:50.589Z,1008.8
2023-06-23T01:41:50.606Z,1008.8
2023-06-23T01:42:50.629Z,1008.9
2023-06-23T01:43:50.642Z,1008.8
2023-06-23T01:44:50.649Z,1008.8
2023-06-23T01:45:50.751Z,1008.9
2023-06-23T01:46:50.681Z,1008.9
2023-06-23T01:47:50.746Z,1008.9
2023-06-23T01:48:50.684Z,1008.9
2023-06-23T01:49:50.705Z,1008.8
2023-06-23T01:50:50.714Z,1009.0
2023-06-23T01:51:50.737Z,1009.0
2023-06-23T01:52:50.755Z,1009.0
2023-06-23T01:53:50.753Z,1009.2
2023-06-23T01:54:50.776Z,1009.0
2023-06-23T01:55:50.802Z,1009.2
2023-06-23T01:56:50.825Z,1009.1
2023-06-23T01:57:50.799Z,1009.2
2023-06-23T01:58:50.794Z,1009.2
2023-06-23T01:59:50.827Z,1009.2
2023-06-23T02:00:50.819Z,1009.2
2023-06-23T02:01:50.917Z,1009.2
2023-06-23T02:02:51.281Z,1009.2
2023-06-23T02:03:51.200Z,1009.3
2023-06-23T02:04:50.981Z,1009.2
2023-06-23T02:05:50.892Z,1009.3
2023-06-23T02:06:50.896Z,1009.3
2023-06-23T02:07:50.891Z,1009.4
2023-06-23T02:08:50.915Z,1009.3
2023-06-23T02:09:50.924Z,1009.3
2023-06-23T02:10:50.923Z,1009.2
2023-06-23T02:11:50.946Z,1009.2
2023-06-23T02:12:50.940Z,1009.2
2023-06-23T02:13:50.960Z,1009.1
2023-06-23T02:14:50.982Z,1009.1
2023-06-23T02:15:50.991Z,1009.1
2023-06-23T02:16:51.025Z,1009.1
2023-06-23T02:17:51.157Z,1009.1
2023-06-23T02:18:51.024Z,1009.1
2023-06-23T02:19:51.038Z,1009.2
2023-06-23T02:20:51.063Z,1009.2
2023-06-23T02:21:51.072Z,1009.1
2023-06-23T02:22:51.080Z,1009.2
2023-06-23T02:23:51.078Z,1009.2
2023-06-23T02:24:51.093Z,1009.2
2023-06-23T02:25:51.098Z,1009.1
2023-06-23T02:26:51.137Z,1009.2
2023-06-23T02:27:51.160Z,1009.2
2023-06-23T02:28:51.199Z,1009.1
2023-06-23T02:29:51.155Z,1009.1
2023-06-23T02:30:51.126Z,1009.2
2023-06-23T02:31:51.204Z,1009.2
2023-06-23T02:32:51.264Z,1009.1
2023-06-23T02:33:51.162Z,1009.1
2023-06-23T02:34:51.190Z,1009.2
2023-06-23T02:35:51.226Z,1009.2
2023-06-23T02:36:51.222Z,1009.2
2023-06-23T02:37:51.240Z,1009.1
2023-06-23T02:38:51.239Z,1009.2
2023-06-23T02:39:51.242Z,1009.3
2023-06-23T02:40:51.242Z,1009.3
2023-06-23T02:41:51.258Z,1009.2
2023-06-23T02:42:51.259Z,1009.2
2023-06-23T02:43:51.467Z,1009.2
2023-06-23T02:44:51.293Z,1009.2
2023-06-23T02:45:51.382Z,1009.2
2023-06-23T02:46:51.309Z,1009.1
2023-06-23T02:47:51.432Z,1009.1
2023-06-23T02:48:51.352Z,1009.2
2023-06-23T02:49:51.365Z,1009.1
2023-06-23T02:50:51.362Z,1009.1
2023-06-23T02:51:51.393Z,1009.1
2023-06-23T02:52:51.384Z,1009.2
2023-06-23T02:53:51.390Z,1009.2
2023-06-23T02:54:51.425Z,1009.2
2023-06-23T02:55:51.460Z,1009.2
2023-06-23T02:56:51.448Z,1009.2
2023-06-23T02:57:51.452Z,1009.2
2023-06-23T02:58:51.469Z,1009.2
2023-06-23T02:59:51.477Z,1009.3
2023-06-23T03:00:51.762Z,1009.3
2023-06-23T03:01:51.494Z,1009.3
2023-06-23T03:02:51.751Z,1009.3
2023-06-23T03:03:51.576Z,1009.3
2023-06-23T03:04:51.539Z,1009.4
2023-06-23T03:05:51.552Z,1009.3
2023-06-23T03:06:51.557Z,1009.4
2023-06-23T03:07:51.567Z,1009.4
2023-06-23T03:08:51.634Z,1009.6
2023-06-23T03:09:51.590Z,1009.4
2023-06-23T03:10:51.610Z,1009.4
2023-06-23T03:11:51.658Z,1009.3
2023-06-23T03:12:51.633Z,1009.5
2023-06-23T03:13:51.647Z,1009.5
2023-06-23T03:14:51.655Z,1009.5
2023-06-23T03:15:51.656Z,1009.4
2023-06-23T03:16:51.676Z,1009.4
2023-06-23T03:17:51.787Z,1009.4
2023-06-23T03:18:51.688Z,1009.4
2023-06-23T03:19:51.710Z,1009.4
2023-06-23T03:20:51.714Z,1009.4
2023-06-23T03:21:51.734Z,1009.4
2023-06-23T03:22:51.746Z,1009.4
2023-06-23T03:23:51.764Z,1009.5
2023-06-23T03:24:51.762Z,1009.4
2023-06-23T03:25:51.766Z,1009.5
2023-06-23T03:26:51.791Z,1009.5
2023-06-23T03:27:51.790Z,1009.5
2023-06-23T03:28:51.805Z,1009.6
2023-06-23T03:29:51.901Z,1009.6
2023-06-23T03:30:52.013Z,1009.6
2023-06-23T03:31:51.841Z,1009.6
2023-06-23T03:32:51.906Z,1009.6
2023-06-23T03:33:51.888Z,1009.7
2023-06-23T03:34:51.902Z,1009.7
2023-06-23T03:35:51.878Z,1009.7
2023-06-23T03:36:51.894Z,1009.7
2023-06-23T03:37:51.908Z,1009.7
2023-06-23T03:38:51.929Z,1009.8
2023-06-23T03:39:51.935Z,1009.8
2023-06-23T03:40:51.954Z,1009.8
2023-06-23T03:41:51.962Z,1009.8
2023-06-23T03:42:51.986Z,1009.8
2023-06-23T03:43:51.999Z,1009.8
2023-06-23T03:44:51.986Z,1009.8
2023-06-23T03:45:52.001Z,1009.8
2023-06-23T03:46:52.057Z,1010.0
2023-06-23T03:47:52.041Z,1010.0
2023-06-23T03:48:52.042Z,1010.0
2023-06-23T03:49:52.055Z,1010.0
2023-06-23T03:50:52.050Z,1010.0
2023-06-23T03:51:52.086Z,1010.0
2023-06-23T03:52:52.099Z,1010.0
2023-06-23T03:53:52.090Z,1010.0
2023-06-23T03:54:52.126Z,1010.0
2023-06-23T03:55:52.133Z,1010.0
2023-06-23T03:56:52.152Z,1009.9
2023-06-23T03:57:52.154Z,1010.0
2023-06-23T03:58:52.185Z,1010.0
2023-06-23T03:59:52.189Z,1009.9
2023-06-23T04:00:52.224Z,1010.0
2023-06-23T04:01:52.284Z,1009.9
2023-06-23T04:02:52.278Z,1009.8
2023-06-23T04:03:52.325Z,1009.8
2023-06-23T04:04:52.247Z,1009.8
2023-06-23T04:05:52.264Z,1009.8
2023-06-23T04:06:52.310Z,1009.8
2023-06-23T04:07:52.279Z,1009.8
2023-06-23T04:08:52.286Z,1009.7
2023-06-23T04:09:52.301Z,1009.7
2023-06-23T04:10:52.320Z,1009.6
2023-06-23T04:11:52.327Z,1009.7
2023-06-23T04:12:52.345Z,1009.6
2023-06-23T04:13:52.365Z,1009.6
2023-06-23T04:14:52.360Z,1009.6
2023-06-23T04:15:52.384Z,1009.6
2023-06-23T04:16:52.389Z,1009.5
2023-06-23T04:17:52.491Z,1009.5
2023-06-23T04:18:52.409Z,1009.4
2023-06-23T04:19:52.420Z,1009.5
2023-06-23T04:20:52.436Z,1009.5
2023-06-23T04:21:52.473Z,1009.5
2023-06-23T04:22:52.477Z,1009.5
2023-06-23T04:23:52.479Z,1009.5
2023-06-23T04:24:52.495Z,1009.4
2023-06-23T04:25:52.503Z,1009.4
2023-06-23T04:26:52.521Z,1009.5
2023-06-23T04:27:52.526Z,1009.5
2023-06-23T04:28:52.546Z,1009.5
2023-06-23T04:29:52.557Z,1009.5
2023-06-23T04:30:52.574Z,1009.6
2023-06-23T04:31:52.671Z,1009.6
2023-06-23T04:32:52.701Z,1009.7
2023-06-23T04:33:52.594Z,1009.7
2023-06-23T04:34:52.600Z,1009.7
2023-06-23T04:35:52.610Z,1009.7
2023-06-23T04:36:52.626Z,1009.6
2023-06-23T04:37:52.640Z,1009.7
2023-06-23T04:38:52.668Z,1009.7
2023-06-23T04:39:52.653Z,1009.6
2023-06-23T04:40:52.672Z,1009.7
2023-06-23T04:41:52.691Z,1009.7
2023-06-23T04:42:52.722Z,1009.6
2023-06-23T04:43:52.741Z,1009.5
2023-06-23T04:44:52.760Z,1009.5
2023-06-23T04:45:52.801Z,1009.6
2023-06-23T04:46:52.769Z,1009.5
2023-06-23T04:47:52.850Z,1009.5
2023-06-23T04:48:52.823Z,1009.6
2023-06-23T04:49:52.813Z,1009.6
2023-06-23T04:50:53.727Z,1009.5
2023-06-23T04:51:53.560Z,1009.7
2023-06-23T04:52:52.842Z,1009.6
2023-06-23T04:53:52.858Z,1009.6
2023-06-23T04:54:52.890Z,1009.6
2023-06-23T04:55:52.902Z,1009.8
2023-06-23T04:56:52.928Z,1009.7
2023-06-23T04:57:52.933Z,1009.8
2023-06-23T04:58:52.976Z,1009.8
2023-06-23T04:59:53.009Z,1009.8
2023-06-23T05:00:53.017Z,1009.8
2023-06-23T05:01:52.990Z,1009.9
2023-06-23T05:02:53.150Z,1009.9
2023-06-23T05:03:53.131Z,1009.9
2023-06-23T05:04:56.652Z,1010.0
2023-06-23T05:05:53.014Z,1010.1
2023-06-23T05:06:53.044Z,1010.1
2023-06-23T05:07:53.046Z,1010.2
2023-06-23T05:08:53.064Z,1010.2
2023-06-23T05:09:53.069Z,1010.2
2023-06-23T05:10:53.077Z,1010.2
2023-06-23T05:11:53.130Z,1010.1
2023-06-23T05:12:53.095Z,1010.3
2023-06-23T05:13:53.121Z,1010.4
2023-06-23T05:14:53.111Z,1010.4
2023-06-23T05:15:53.127Z,1010.3
2023-06-23T05:16:53.138Z,1010.4
2023-06-23T05:17:53.212Z,1010.3
2023-06-23T05:18:53.151Z,1010.4
2023-06-23T05:19:53.161Z,1010.5
2023-06-23T05:20:53.163Z,1010.4
2023-06-23T05:21:53.185Z,1010.5
2023-06-23T05:22:53.194Z,1010.5
2023-06-23T05:23:54.343Z,1010.4
2023-06-23T05:24:53.222Z,1010.4
2023-06-23T05:25:53.275Z,1010.4
2023-06-23T05:26:53.243Z,1010.5
2023-06-23T05:27:53.256Z,1010.5
2023-06-23T05:28:53.284Z,1010.5
2023-06-23T05:29:53.270Z,1010.5
2023-06-23T05:30:53.562Z,1010.6
2023-06-23T05:31:53.326Z,1010.6
2023-06-23T05:32:53.432Z,1010.4
2023-06-23T05:33:53.320Z,1010.5
2023-06-23T05:34:53.334Z,1010.6
2023-06-23T05:35:53.444Z,1010.4
2023-06-23T05:36:53.348Z,1010.5
2023-06-23T05:37:53.416Z,1010.5
2023-06-23T05:38:53.427Z,1010.5
2023-06-23T05:39:53.397Z,1010.4
2023-06-23T05:40:53.399Z,1010.5
2023-06-23T05:41:53.430Z,1010.4
2023-06-23T05:42:53.431Z,1010.5
2023-06-23T05:43:53.451Z,1010.5
2023-06-23T05:44:53.469Z,1010.4
2023-06-23T05:45:53.469Z,1010.4
2023-06-23T05:46:53.588Z,1010.5
2023-06-23T05:47:53.558Z,1010.4
2023-06-23T05:48:53.523Z,1010.5
2023-06-23T05:49:53.603Z,1010.4
2023-06-23T05:50:53.549Z,1010.4
2023-06-23T05:51:53.564Z,1010.4
2023-06-23T05:52:53.581Z,1010.4
2023-06-23T05:53:53.595Z,1010.3
2023-06-23T05:54:53.611Z,1010.3
2023-06-23T05:55:53.621Z,1010.3
2023-06-23T05:56:53.631Z,1010.3
2023-06-23T05:57:53.644Z,1010.3
2023-06-23T05:58:53.658Z,1010.3
2023-06-23T05:59:53.666Z,1010.2
2023-06-23T06:00:53.737Z,1010.3
2023-06-23T06:01:53.676Z,1010.3
2023-06-23T06:02:53.839Z,1010.3
2023-06-23T06:03:53.791Z,1010.4
2023-06-23T06:04:53.711Z,1010.3
2023-06-23T06:05:53.748Z,1010.3
2023-06-23T06:06:53.765Z,1010.4
2023-06-23T06:07:53.770Z,1010.5
2023-06-23T06:08:53.776Z,1010.4
2023-06-23T06:09:53.780Z,1010.4
2023-06-23T06:10:53.794Z,1010.5
2023-06-23T06:11:53.814Z,1010.5
2023-06-23T06:12:53.803Z,1010.4
2023-06-23T06:13:53.815Z,1010.4
2023-06-23T06:14:53.829Z,1010.4
2023-06-23T06:15:53.845Z,1010.3
2023-06-23T06:16:53.875Z,1010.5
2023-06-23T06:17:54.060Z,1010.5
2023-06-23T06:18:53.887Z,1010.4
2023-06-23T06:19:53.914Z,1010.5
2023-06-23T06:20:53.933Z,1010.5
2023-06-23T06:21:53.937Z,1010.5
2023-06-23T06:23:15.522Z,1010.6
2023-06-23T06:23:53.996Z,1010.5
2023-06-23T06:24:54.095Z,1010.6
2023-06-23T06:25:54.034Z,1010.6
2023-06-23T06:26:54.005Z,1010.6
2023-06-23T06:27:54.012Z,1010.5
2023-06-23T06:28:54.045Z,1010.5
2023-06-23T06:29:54.051Z,1010.5
2023-06-23T06:30:54.166Z,1010.5
2023-06-23T06:31:54.090Z,1010.6
2023-06-23T06:32:54.157Z,1010.5
2023-06-23T06:33:54.118Z,1010.5
2023-06-23T06:34:54.129Z,1010.5
2023-06-23T06:35:54.138Z,1010.5
2023-06-23T06:36:54.112Z,1010.5
2023-06-23T06:37:54.116Z,1010.5
2023-06-23T06:38:54.143Z,1010.6
2023-06-23T06:39:54.167Z,1010.6
2023-06-23T06:40:54.155Z,1010.6
2023-06-23T06:41:54.176Z,1010.6
2023-06-23T06:42:54.188Z,1010.6
2023-06-23T06:43:54.248Z,1010.7
2023-06-23T06:44:54.216Z,1010.7
2023-06-23T06:45:54.264Z,1010.7
2023-06-23T06:46:54.258Z,1010.7
2023-06-23T06:47:54.391Z,1010.6
2023-06-23T06:48:54.273Z,1010.8
2023-06-23T06:49:54.303Z,1010.7
2023-06-23T06:50:54.302Z,1010.8
2023-06-23T06:51:54.299Z,1010.7
2023-06-23T06:52:54.320Z,1010.8
2023-06-23T06:53:54.325Z,1010.7
2023-06-23T06:54:54.348Z,1010.8
2023-06-23T06:55:54.352Z,1010.8
2023-06-23T06:56:54.350Z,1010.9
2023-06-23T06:57:54.349Z,1010.9
2023-06-23T06:58:54.359Z,1010.9
2023-06-23T06:59:54.448Z,1010.9
2023-06-23T07:00:54.378Z,1011.0
2023-06-23T07:01:54.528Z,1010.9
2023-06-23T07:02:54.507Z,1010.9
2023-06-23T07:03:54.530Z,1010.9
2023-06-23T07:04:54.403Z,1010.9
2023-06-23T07:05:54.408Z,1010.9
2023-06-23T07:06:54.414Z,1011.0
2023-06-23T07:07:54.420Z,1011.0
2023-06-23T07:08:54.440Z,1010.9
2023-06-23T07:09:54.429Z,1011.1
2023-06-23T07:10:54.441Z,1011.0
2023-06-23T07:11:54.444Z,1011.0
2023-06-23T07:12:54.457Z,1011.1
2023-06-23T07:13:54.459Z,1011.1
2023-06-23T07:14:54.466Z,1011.0
2023-06-23T07:15:54.630Z,1011.1
2023-06-23T07:16:54.484Z,1011.1
2023-06-23T07:17:54.546Z,1011.1
2023-06-23T07:18:54.480Z,1011.1
2023-06-23T07:19:54.499Z,1011.2
2023-06-23T07:20:54.519Z,1011.2
2023-06-23T07:21:54.521Z,1011.2
2023-06-23T07:22:54.527Z,1011.1
2023-06-23T07:23:54.533Z,1011.2
2023-06-23T07:24:54.535Z,1011.2
2023-06-23T07:25:54.540Z,1011.2
2023-06-23T07:26:54.559Z,1011.2
2023-06-23T07:27:54.550Z,1011.3
2023-06-23T07:28:54.562Z,1011.3
2023-06-23T07:29:54.557Z,1011.3
2023-06-23T07:30:54.665Z,1011.3
2023-06-23T07:31:54.650Z,1011.3
2023-06-23T07:32:54.677Z,1011.3
2023-06-23T07:33:54.570Z,1011.3
2023-06-23T07:34:54.601Z,1011.3
2023-06-23T07:35:54.587Z,1011.3
2023-06-23T07:36:54.596Z,1011.3
2023-06-23T07:37:54.623Z,1011.3
2023-06-23T07:38:54.613Z,1011.3
2023-06-23T07:39:54.622Z,1011.3
2023-06-23T07:40:54.664Z,1011.3
2023-06-23T07:41:54.628Z,1011.3
2023-06-23T07:42:54.642Z,1011.3
2023-06-23T07:43:54.646Z,1011.4
2023-06-23T07:44:54.649Z,1011.4
2023-06-23T07:45:54.816Z,1011.4
2023-06-23T07:46:54.998Z,1011.3
2023-06-23T07:47:54.738Z,1011.3
2023-06-23T07:48:54.695Z,1011.3
2023-06-23T07:49:54.707Z,1011.4
2023-06-23T07:50:54.722Z,1011.3
2023-06-23T07:51:54.732Z,1011.4
2023-06-23T07:52:54.734Z,1011.3
2023-06-23T07:54:07.047Z,1011.4
2023-06-23T07:54:54.724Z,1011.4
2023-06-23T07:55:54.737Z,1011.4
2023-06-23T07:56:54.739Z,1011.4
2023-06-23T07:57:54.768Z,1011.3
2023-06-23T07:58:54.763Z,1011.4
2023-06-23T07:59:54.771Z,1011.4
2023-06-23T08:00:54.814Z,1011.5
2023-06-23T08:01:54.789Z,1011.4
2023-06-23T08:02:54.972Z,1011.4
2023-06-23T08:03:55.227Z,1011.3
2023-06-23T08:04:54.881Z,1011.4
2023-06-23T08:05:54.820Z,1011.4
2023-06-23T08:06:54.824Z,1011.5
2023-06-23T08:07:54.827Z,1011.5
2023-06-23T08:08:54.840Z,1011.4
2023-06-23T08:09:54.838Z,1011.4
2023-06-23T08:10:54.831Z,1011.5
2023-06-23T08:11:54.886Z,1011.4
2023-06-23T08:12:54.846Z,1011.5
2023-06-23T08:13:54.854Z,1011.5
2023-06-23T08:14:54.854Z,1011.5
2023-06-23T08:15:54.872Z,1011.5
2023-06-23T08:16:55.019Z,1011.5
2023-06-23T08:17:55.113Z,1011.5
2023-06-23T08:18:54.940Z,1011.5
2023-06-23T08:19:54.895Z,1011.6
2023-06-23T08:20:55.032Z,1011.6
2023-06-23T08:21:54.907Z,1011.6
2023-06-23T08:22:54.963Z,1011.6
2023-06-23T08:23:54.934Z,1011.6
2023-06-23T08:24:54.912Z,1011.7
2023-06-23T08:25:54.931Z,1011.6
2023-06-23T08:26:55.006Z,1011.6
2023-06-23T08:27:57.552Z,1011.7
2023-06-23T08:28:54.961Z,1011.7
2023-06-23T08:29:55.001Z,1011.8
2023-06-23T08:30:55.037Z,1011.7
2023-06-23T08:31:55.054Z,1011.7
2023-06-23T08:32:55.116Z,1011.7
2023-06-23T08:33:54.972Z,1011.8
2023-06-23T08:34:55.041Z,1011.8
2023-06-23T08:35:55.099Z,1011.8
2023-06-23T08:36:55.014Z,1011.8
2023-06-23T08:37:55.028Z,1011.7
2023-06-23T08:38:55.019Z,1011.8
2023-06-23T08:39:55.029Z,1011.9
2023-06-23T08:40:55.054Z,1011.9
2023-06-23T08:41:55.042Z,1011.9
2023-06-23T08:42:55.068Z,1011.9
2023-06-23T08:43:55.053Z,1011.9
2023-06-23T08:44:55.167Z,1012.0
2023-06-23T08:45:55.072Z,1012.0
2023-06-23T08:47:07.121Z,1012.0
2023-06-23T08:47:55.211Z,1012.1
2023-06-23T08:48:55.090Z,1012.1
2023-06-23T08:49:55.092Z,1012.1
2023-06-23T08:50:55.104Z,1012.2
2023-06-23T08:51:55.103Z,1012.1
2023-06-23T08:52:55.140Z,1012.2
2023-06-23T08:53:55.118Z,1012.2
2023-06-23T08:54:55.120Z,1012.2
2023-06-23T08:55:55.128Z,1012.3
2023-06-23T08:56:55.123Z,1012.3
2023-06-23T08:57:55.139Z,1012.3
2023-06-23T08:58:55.228Z,1012.3
2023-06-23T08:59:55.152Z,1012.3
2023-06-23T09:00:55.257Z,1012.4
2023-06-23T09:01:55.282Z,1012.5
2023-06-23T09:02:55.444Z,1012.4
2023-06-23T09:03:55.179Z,1012.5
2023-06-23T09:04:55.181Z,1012.5
2023-06-23T09:05:55.308Z,1012.6
2023-06-23T09:06:55.209Z,1012.7
2023-06-23T09:07:55.208Z,1012.6
2023-06-23T09:08:55.212Z,1012.7
2023-06-23T09:09:55.222Z,1012.7
2023-06-23T09:10:55.265Z,1012.7
2023-06-23T09:11:55.244Z,1012.7
2023-06-23T09:12:55.239Z,1012.8
2023-06-23T09:13:55.285Z,1012.8
2023-06-23T09:14:55.255Z,1012.8
2023-06-23T09:16:04.319Z,1012.8
2023-06-23T09:16:55.293Z,1012.9
2023-06-23T09:17:55.398Z,1012.9
2023-06-23T09:18:55.290Z,1012.8
2023-06-23T09:19:55.292Z,1013.0
2023-06-23T09:20:55.325Z,1013.0
2023-06-23T09:21:55.323Z,1012.9
2023-06-23T09:22:55.303Z,1013.0
2023-06-23T09:23:55.317Z,1013.1
2023-06-23T09:24:55.323Z,1013.1
2023-06-23T09:25:59.914Z,1013.1
2023-06-23T09:26:55.344Z,1013.1
2023-06-23T09:27:55.338Z,1013.1
2023-06-23T09:28:55.346Z,1013.1
2023-06-23T09:29:55.355Z,1013.1
2023-06-23T09:30:55.414Z,1013.1
2023-06-23T09:31:55.368Z,1013.2
2023-06-23T09:32:55.479Z,1013.2
2023-06-23T09:33:55.479Z,1013.1
2023-06-23T09:34:55.396Z,1013.2
2023-06-23T09:35:55.403Z,1013.2
2023-06-23T09:36:55.417Z,1013.2
2023-06-23T09:37:55.418Z,1013.3
2023-06-23T09:38:55.424Z,1013.2
2023-06-23T09:39:55.427Z,1013.3
2023-06-23T09:40:55.469Z,1013.2
2023-06-23T09:41:55.466Z,1013.3
2023-06-23T09:42:55.473Z,1013.3
2023-06-23T09:43:55.516Z,1013.3
2023-06-23T09:44:55.480Z,1013.3
2023-06-23T09:45:55.461Z,1013.3
2023-06-23T09:46:55.473Z,1013.3
2023-06-23T09:47:55.575Z,1013.3
2023-06-23T09:48:55.498Z,1013.3
2023-06-23T09:49:55.490Z,1013.3
2023-06-23T09:50:55.524Z,1013.3
2023-06-23T09:51:55.506Z,1013.3
2023-06-23T09:52:55.516Z,1013.4
2023-06-23T09:53:55.509Z,1013.4
2023-06-23T09:54:55.527Z,1013.4
2023-06-23T09:55:55.535Z,1013.4
2023-06-23T09:56:55.537Z,1013.5
2023-06-23T09:57:55.556Z,1013.4
2023-06-23T09:58:55.557Z,1013.4
2023-06-23T09:59:55.551Z,1013.4
2023-06-23T10:00:55.553Z,1013.4
2023-06-23T10:01:55.684Z,1013.4
2023-06-23T10:02:55.897Z,1013.4
2023-06-23T10:03:55.828Z,1013.4
2023-06-23T10:04:55.590Z,1013.5
2023-06-23T10:05:55.589Z,1013.5
2023-06-23T10:06:55.621Z,1013.5
2023-06-23T10:07:55.632Z,1013.5
2023-06-23T10:08:55.601Z,1013.5
2023-06-23T10:10:21.427Z,1013.5
2023-06-23T10:10:55.631Z,1013.6
2023-06-23T10:11:55.715Z,1013.5
2023-06-23T10:12:55.646Z,1013.6
2023-06-23T10:13:55.676Z,1013.6
2023-06-23T10:14:55.664Z,1013.6
2023-06-23T10:15:55.667Z,1013.5
2023-06-23T10:16:55.670Z,1013.5
2023-06-23T10:17:55.749Z,1013.6
2023-06-23T10:18:55.684Z,1013.5
2023-06-23T10:19:55.702Z,1013.5
2023-06-23T10:20:55.701Z,1013.5
2023-06-23T10:21:55.754Z,1013.5
2023-06-23T10:22:55.717Z,1013.6
2023-06-23T10:23:55.725Z,1013.5
2023-06-23T10:24:55.741Z,1013.5
2023-06-23T10:25:55.824Z,1013.6
2023-06-23T10:26:55.778Z,1013.6
2023-06-23T10:27:55.765Z,1013.6
2023-06-23T10:28:55.760Z,1013.5
2023-06-23T10:29:55.782Z,1013.5
2023-06-23T10:30:55.822Z,1013.7
2023-06-23T10:31:55.929Z,1013.7
2023-06-23T10:32:55.892Z,1013.7
2023-06-23T10:33:55.810Z,1013.7
2023-06-23T10:34:55.813Z,1013.6
2023-06-23T10:35:55.810Z,1013.7
2023-06-23T10:36:55.825Z,1013.7
2023-06-23T10:37:55.831Z,1013.7
2023-06-23T10:38:55.854Z,1013.7
2023-06-23T10:39:55.872Z,1013.7
2023-06-23T10:40:55.858Z,1013.7
2023-06-23T10:41:55.960Z,1013.8
2023-06-23T10:42:55.875Z,1013.8
2023-06-23T10:43:55.900Z,1013.8
2023-06-23T10:44:55.911Z,1013.8
2023-06-23T10:45:55.895Z,1013.8
2023-06-23T10:46:55.895Z,1013.8
2023-06-23T10:47:55.951Z,1013.8
2023-06-23T10:48:55.921Z,1013.8
2023-06-23T10:49:55.939Z,1013.8
2023-06-23T10:50:55.944Z,1013.8
2023-06-23T10:51:56.116Z,1014.0
2023-06-23T10:52:55.935Z,1013.9
2023-06-23T10:53:55.937Z,1013.8
2023-06-23T10:54:55.946Z,1013.9
2023-06-23T10:56:08.875Z,1013.8
2023-06-23T10:56:55.957Z,1013.8
2023-06-23T10:57:55.964Z,1013.8
2023-06-23T10:58:55.968Z,1013.8
2023-06-23T10:59:55.987Z,1013.8
2023-06-23T11:00:56.043Z,1013.8
2023-06-23T11:01:58.802Z,1013.9
2023-06-23T11:02:56.122Z,1013.8
2023-06-23T11:03:56.025Z,1013.9
2023-06-23T11:04:56.103Z,1013.9
2023-06-23T11:05:56.027Z,1014.0
2023-06-23T11:06:56.040Z,1014.0
2023-06-23T11:07:56.031Z,1014.0
2023-06-23T11:08:56.032Z,1013.9
2023-06-23T11:09:56.129Z,1014.0
2023-06-23T11:10:56.052Z,1014.0
2023-06-23T11:11:56.093Z,1014.0
2023-06-23T11:12:59.728Z,1014.0
2023-06-23T11:13:56.068Z,1013.9
2023-06-23T11:14:56.074Z,1014.0
2023-06-23T11:15:56.081Z,1014.0
2023-06-23T11:16:56.083Z,1014.0
2023-06-23T11:17:56.135Z,1014.0
2023-06-23T11:19:01.590Z,1014.0
2023-06-23T11:19:56.104Z,1013.9
2023-06-23T11:20:56.119Z,1014.0
2023-06-23T11:21:56.124Z,1013.9
2023-06-23T11:22:56.228Z,1013.9
2023-06-23T11:23:56.126Z,1013.9
2023-06-23T11:24:56.153Z,1014.0
2023-06-23T11:25:56.146Z,1013.9
2023-06-23T11:26:56.250Z,1014.0
2023-06-23T11:27:56.173Z,1014.0
2023-06-23T11:28:56.160Z,1014.0
2023-06-23T11:29:56.168Z,1014.1
2023-06-23T11:30:56.298Z,1014.0
2023-06-23T11:31:56.189Z,1014.1
2023-06-23T11:32:56.267Z,1014.2
2023-06-23T11:33:56.209Z,1014.0
2023-06-23T11:34:56.236Z,1014.1
2023-06-23T11:35:56.204Z,1014.2
2023-06-23T11:36:56.220Z,1014.2
2023-06-23T11:37:56.261Z,1014.1
2023-06-23T11:38:56.251Z,1014.2
2023-06-23T11:39:56.264Z,1014.2
2023-06-23T11:40:56.239Z,1014.1
2023-06-23T11:41:56.274Z,1014.2
2023-06-23T11:42:56.254Z,1014.2
2023-06-23T11:43:56.260Z,1014.1
2023-06-23T11:44:56.266Z,1014.1
2023-06-23T11:45:56.292Z,1014.1
2023-06-23T11:46:56.305Z,1014.1
2023-06-23T11:47:56.417Z,1014.1
2023-06-23T11:48:56.302Z,1014.2
2023-06-23T11:49:56.302Z,1014.2
2023-06-23T11:50:56.316Z,1014.2
2023-06-23T11:51:56.325Z,1014.2
2023-06-23T11:52:56.325Z,1014.1
2023-06-23T11:53:56.329Z,1014.2
2023-06-23T11:54:56.341Z,1014.2
2023-06-23T11:55:56.341Z,1014.2
2023-06-23T11:56:56.343Z,1014.2
2023-06-23T11:57:56.367Z,1014.2
2023-06-23T11:58:56.363Z,1014.2
2023-06-23T11:59:56.384Z,1014.2
2023-06-23T12:00:56.376Z,1014.1
2023-06-23T12:01:56.383Z,1014.1
2023-06-23T12:02:56.524Z,1014.2
2023-06-23T12:03:56.754Z,1014.1
2023-06-23T12:04:56.540Z,1014.2
2023-06-23T12:05:56.450Z,1014.1
2023-06-23T12:06:56.423Z,1014.2
2023-06-23T12:07:56.444Z,1014.1
2023-06-23T12:08:56.455Z,1014.1
2023-06-23T12:09:56.443Z,1014.1
2023-06-23T12:10:56.458Z,1014.0
2023-06-23T12:11:56.471Z,1014.1
2023-06-23T12:12:56.473Z,1014.2
2023-06-23T12:13:56.473Z,1014.1
2023-06-23T12:14:56.472Z,1014.2
2023-06-23T12:15:59.196Z,1014.1
2023-06-23T12:16:57.943Z,1014.2
2023-06-23T12:17:56.681Z,1014.2
2023-06-23T12:18:56.538Z,1014.2
2023-06-23T12:19:56.585Z,1014.2
2023-06-23T12:20:56.539Z,1014.2
2023-06-23T12:21:56.538Z,1014.2
2023-06-23T12:22:56.573Z,1014.3
2023-06-23T12:23:56.548Z,1014.3
2023-06-23T12:24:56.574Z,1014.2
2023-06-23T12:25:56.559Z,1014.2
2023-06-23T12:26:56.568Z,1014.2
2023-06-23T12:27:56.589Z,1014.2
2023-06-23T12:28:56.591Z,1014.3
2023-06-23T12:29:56.619Z,1014.2
2023-06-23T12:30:56.650Z,1014.2
2023-06-23T12:31:56.802Z,1014.2
2023-06-23T12:32:56.723Z,1014.2
2023-06-23T12:33:56.646Z,1014.2
2023-06-23T12:34:56.647Z,1014.3
2023-06-23T12:35:56.654Z,1014.3
2023-06-23T12:36:56.662Z,1014.2
2023-06-23T12:37:56.662Z,1014.3
2023-06-23T12:38:56.672Z,1014.3
2023-06-23T12:39:56.690Z,1014.3
2023-06-23T12:40:56.760Z,1014.2
2023-06-23T12:41:56.699Z,1014.2
2023-06-23T12:42:56.712Z,1014.2
2023-06-23T12:43:56.722Z,1014.2
2023-06-23T12:44:56.730Z,1014.2
2023-06-23T12:45:56.901Z,1014.1
2023-06-23T12:46:56.725Z,1014.1
2023-06-23T12:47:56.916Z,1014.1
2023-06-23T12:50:58.829Z,1014.1
2023-06-23T12:51:56.826Z,1014.2
2023-06-23T12:52:56.833Z,1014.1
2023-06-23T12:53:56.840Z,1014.1
2023-06-23T12:54:56.849Z,1014.2
2023-06-23T12:55:56.854Z,1014.1
2023-06-23T12:56:56.860Z,1014.1
2023-06-23T12:57:56.870Z,1014.2
2023-06-23T12:58:56.882Z,1014.2
2023-06-23T12:59:56.902Z,1014.2
2023-06-23T13:00:56.888Z,1014.2
2023-06-23T13:01:57.055Z,1014.2
2023-06-23T13:02:57.045Z,1014.2
2023-06-23T13:03:57.130Z,1014.2
2023-06-23T13:04:56.929Z,1014.2